createdAt,value
2023-03-24T07:20:22.714Z,1.98
2023-03-24T07:25:27.164Z,2.10
2023-03-24T07:30:40.634Z,2.28
2023-03-24T07:35:44.067Z,2.50
2023-03-24T07:40:46.362Z,2.22
2023-03-24T07:45:48.355Z,2.20
2023-03-24T07:50:52.593Z,2.88
2023-03-24T07:56:15.979Z,2.95
2023-03-24T08:01:27.087Z,2.10
2023-03-24T08:06:32.466Z,3.20
2023-03-24T08:11:34.660Z,2.90
2023-03-24T08:16:38.905Z,2.25
2023-03-24T08:21:41.067Z,2.58
2023-03-24T08:26:43.102Z,3.03
2023-03-24T08:31:44.745Z,2.65
2023-03-24T08:36:46.370Z,2.80
2023-03-24T08:41:50.192Z,2.42
2023-03-24T08:46:51.875Z,2.38
2023-03-24T08:51:53.513Z,3.08
2023-03-24T08:56:55.449Z,2.58
2023-03-24T09:01:57.179Z,2.75
2023-03-24T09:07:02.843Z,2.28
2023-03-24T09:12:04.821Z,2.90
2023-03-24T09:17:06.993Z,3.05
2023-03-24T09:22:08.676Z,2.97
2023-03-24T09:27:10.883Z,2.67
2023-03-24T09:32:12.556Z,3.22
2023-03-24T09:37:14.264Z,2.53
2023-03-24T09:42:24.103Z,2.83
2023-03-24T09:47:30.971Z,2.28
2023-03-24T09:52:39.981Z,2.03
2023-03-24T09:57:45.634Z,2.42
2023-03-24T10:02:49.702Z,2.50
2023-03-24T10:08:12.736Z,2.03
2023-03-24T10:13:29.852Z,4.30
2023-03-24T10:18:46.121Z,1.25
2023-03-24T10:24:18.825Z,1.48
2023-03-24T10:29:28.862Z,1.17
2023-03-24T10:34:33.836Z,1.08
2023-03-24T10:39:43.948Z,1.50
2023-03-24T10:44:48.391Z,1.85
2023-03-24T10:50:12.324Z,1.13
2023-03-24T10:55:19.525Z,1.10
2023-03-24T11:00:26.834Z,0.90
2023-03-24T11:05:33.344Z,0.70
2023-03-24T11:10:34.991Z,1.50
2023-03-24T11:15:37.456Z,1.92
2023-03-24T11:21:09.439Z,0.80
2023-03-24T11:26:19.089Z,1.23
2023-03-24T11:31:27.902Z,1.33
2023-03-24T11:36:36.025Z,1.40
2023-03-24T11:41:52.676Z,1.30
2023-03-24T11:47:10.214Z,0.82
2023-03-24T11:52:24.189Z,1.20
2023-03-24T11:57:48.829Z,1.35
2023-03-24T12:02:59.525Z,1.00
2023-03-24T12:08:26.462Z,0.98
2023-03-24T12:13:39.380Z,0.98
2023-03-24T12:18:57.006Z,0.95
2023-03-24T12:24:17.399Z,4.45
2023-03-24T12:30:14.407Z,0.98
2023-03-24T12:35:38.219Z,1.58
2023-03-24T12:40:53.300Z,1.35
2023-03-24T12:46:06.089Z,0.90
2023-03-24T12:51:29.198Z,0.80
2023-03-24T12:56:48.167Z,0.82
2023-03-24T13:02:22.303Z,0.93
2023-03-24T13:07:28.520Z,1.00
2023-03-24T13:12:40.823Z,0.80
2023-03-24T13:17:59.821Z,0.88
2023-03-24T13:23:42.588Z,1.20
2023-03-24T13:29:10.888Z,0.93
2023-03-24T13:34:31.754Z,0.95
2023-03-24T13:39:36.152Z,1.10
2023-03-24T13:44:41.283Z,1.20
2023-03-24T13:49:53.748Z,0.82
2023-03-24T13:55:00.057Z,1.05
2023-03-24T14:00:11.896Z,2.13
2023-03-24T14:05:22.806Z,2.95
2023-03-24T14:10:24.396Z,1.52
2023-03-24T14:15:55.839Z,1.27
2023-03-24T14:20:57.552Z,1.45
2023-03-24T14:25:59.411Z,1.27
2023-03-24T14:31:10.198Z,1.27
2023-03-24T14:36:20.822Z,1.52
2023-03-24T14:41:38.994Z,1.35
2023-03-24T14:46:48.075Z,1.58
2023-03-24T14:52:09.263Z,2.15
2023-03-24T14:57:20.349Z,2.35
2023-03-24T15:02:41.382Z,2.08
2023-03-24T15:07:44.428Z,1.25
2023-03-24T15:12:47.701Z,1.20
2023-03-24T15:17:51.581Z,1.52
2023-03-24T15:22:55.393Z,1.42
2023-03-24T15:27:57.902Z,1.50
2023-03-24T15:32:59.704Z,1.33
2023-03-24T15:38:01.872Z,1.30
2023-03-24T15:43:17.997Z,1.60
2023-03-24T15:48:24.700Z,1.48
2023-03-24T15:53:29.469Z,1.60
2023-03-24T15:58:34.511Z,1.60
2023-03-24T16:03:36.204Z,1.88
2023-03-24T16:08:41.153Z,1.50
2023-03-24T16:13:45.005Z,1.83
2023-03-24T16:18:48.763Z,1.88
2023-03-24T16:23:52.386Z,1.42
2023-03-24T16:28:56.987Z,1.27
2023-03-24T16:33:59.402Z,1.45
2023-03-24T16:39:05.196Z,1.17
2023-03-24T16:44:06.873Z,1.15
2023-03-24T16:49:16.513Z,1.50
2023-03-24T16:54:19.970Z,1.20
2023-03-24T16:59:21.596Z,1.30
2023-03-24T17:04:25.916Z,1.23
2023-03-24T17:09:28.647Z,1.83
2023-03-24T17:14:31.162Z,1.90
2023-03-24T17:19:33.129Z,1.15
2023-03-24T17:24:36.706Z,1.63
2023-03-24T17:29:38.383Z,1.58
2023-03-24T17:34:42.369Z,1.58
2023-03-24T17:39:44.284Z,1.67
2023-03-24T17:44:45.969Z,1.75
2023-03-24T17:49:47.640Z,1.92
2023-03-24T17:54:49.245Z,1.73
2023-03-24T17:59:52.889Z,1.77
2023-03-24T18:04:55.190Z,1.60
2023-03-24T18:09:56.809Z,1.33
2023-03-24T18:14:58.417Z,1.42
2023-03-24T18:20:10.221Z,1.73
2023-03-24T18:25:13.591Z,2.33
2023-03-24T18:30:16.947Z,1.40
2023-03-24T18:35:18.709Z,1.38
2023-03-24T18:40:20.332Z,1.98
2023-03-24T18:45:21.957Z,2.03
2023-03-24T18:50:23.552Z,2.35
2023-03-24T18:55:26.712Z,1.70
2023-03-24T19:00:28.660Z,1.70
2023-03-24T19:05:33.405Z,2.35
2023-03-24T19:10:36.833Z,2.25
2023-03-24T19:15:39.349Z,2.08
2023-03-24T19:20:42.090Z,2.25
2023-03-24T19:25:43.854Z,2.33
2023-03-24T19:30:45.599Z,2.38
2023-03-24T19:35:48.695Z,2.70
2023-03-24T19:40:52.775Z,2.42
2023-03-24T19:45:55.983Z,2.03
2023-03-24T19:50:57.664Z,2.70
2023-03-24T19:55:59.904Z,2.63
2023-03-24T20:01:01.606Z,2.38
2023-03-24T20:06:05.112Z,2.25
2023-03-24T20:11:09.386Z,2.30
2023-03-24T20:16:11.145Z,2.58
2023-03-24T20:21:20.023Z,2.60
2023-03-24T20:26:21.978Z,2.38
2023-03-24T20:31:24.881Z,2.65
2023-03-24T20:36:26.512Z,2.75
2023-03-24T20:41:28.219Z,2.53
2023-03-24T20:46:29.903Z,2.30
2023-03-24T20:51:31.529Z,1.67
2023-03-24T20:56:34.614Z,1.92
2023-03-24T21:01:36.781Z,2.20
2023-03-24T21:06:38.438Z,2.08
2023-03-24T21:11:40.071Z,2.65
2023-03-24T21:16:41.709Z,2.35
2023-03-24T21:21:44.694Z,2.85
2023-03-24T21:26:49.418Z,2.08
2023-03-24T21:31:51.539Z,2.00
2023-03-24T21:36:55.605Z,2.13
2023-03-24T21:41:57.450Z,2.92
2023-03-24T21:47:00.628Z,2.47
2023-03-24T21:52:04.440Z,1.95
2023-03-24T21:57:06.125Z,2.03
2023-03-24T22:02:14.483Z,1.65
2023-03-24T22:07:18.959Z,1.92
2023-03-24T22:12:20.806Z,1.92
2023-03-24T22:17:22.453Z,2.20
2023-03-24T22:22:24.207Z,2.47
2023-03-24T22:27:25.873Z,2.20
2023-03-24T22:32:27.888Z,2.42
2023-03-24T22:37:30.502Z,2.15
2023-03-24T22:42:32.137Z,2.30
2023-03-24T22:47:34.059Z,2.47
2023-03-24T22:52:35.760Z,1.70
2023-03-24T22:57:37.382Z,1.70
2023-03-24T23:02:39.148Z,2.15
2023-03-24T23:07:42.150Z,2.22
2023-03-24T23:12:44.066Z,2.33
2023-03-24T23:17:46.231Z,2.28
2023-03-24T23:22:48.093Z,1.85
2023-03-24T23:27:49.972Z,2.33
2023-03-24T23:32:51.838Z,2.28
2023-03-24T23:37:53.577Z,2.20
2023-03-24T23:42:55.173Z,2.50
2023-03-24T23:47:56.971Z,2.67
2023-03-24T23:52:59.290Z,1.98
2023-03-24T23:58:01.101Z,2.15
